sensor_id;sensor_type;location;lat;lon;timestamp;P1;durP1;ratioP1;P2;durP2;ratioP2
61821;SDS011;47749;51.104;7.008;2023-12-28T00:00:04;4.55;;;2.33;;
61821;SDS011;47749;51.104;7.008;2023-12-28T00:00:31;3.75;;;2.10;;
61821;SDS011;47749;51.104;7.008;2023-12-28T00:00:56;3.85;;;2.20;;
61821;SDS011;47749;51.104;7.008;2023-12-28T00:01:28;4.72;;;2.05;;
61821;SDS011;47749;51.104;7.008;2023-12-28T00:02:11;3.85;;;2.00;;
61821;SDS011;47749;51.104;7.008;2023-12-28T00:02:39;4.22;;;2.20;;
61821;SDS011;47749;51.104;7.008;2023-12-28T00:03:05;4.57;;;2.35;;
61821;SDS011;47749;51.104;7.008;2023-12-28T00:03:37;4.55;;;2.30;;
61821;SDS011;47749;51.104;7.008;2023-12-28T00:04:16;5.10;;;2.80;;
61821;SDS011;47749;51.104;7.008;2023-12-28T00:05:08;4.65;;;2.35;;
61821;SDS011;47749;51.104;7.008;2023-12-28T00:05:49;5.25;;;2.50;;
61821;SDS011;47749;51.104;7.008;2023-12-28T00:06:17;5.03;;;2.60;;
61821;SDS011;47749;51.104;7.008;2023-12-28T00:08:01;5.00;;;2.20;;
61821;SDS011;47749;51.104;7.008;2023-12-28T00:08:48;4.93;;;2.35;;
61821;SDS011;47749;51.104;7.008;2023-12-28T00:10:05;4.90;;;2.40;;
61821;SDS011;47749;51.104;7.008;2023-12-28T00:10:47;5.07;;;2.50;;
61821;SDS011;47749;51.104;7.008;2023-12-28T00:11:22;4.68;;;2.25;;
61821;SDS011;47749;51.104;7.008;2023-12-28T00:11:48;4.50;;;2.30;;
61821;SDS011;47749;51.104;7.008;2023-12-28T00:14:42;4.97;;;2.20;;
61821;SDS011;47749;51.104;7.008;2023-12-28T00:15:13;4.43;;;2.20;;
61821;SDS011;47749;51.104;7.008;2023-12-28T00:15:39;4.55;;;2.35;;
61821;SDS011;47749;51.104;7.008;2023-12-28T00:16:15;5.35;;;2.30;;
61821;SDS011;47749;51.104;7.008;2023-12-28T00:17:00;5.20;;;2.00;;
61821;SDS011;47749;51.104;7.008;2023-12-28T00:17:20;4.80;;;2.20;;
61821;SDS011;47749;51.104;7.008;2023-12-28T00:18:05;4.60;;;2.00;;
61821;SDS011;47749;51.104;7.008;2023-12-28T00:18:57;4.22;;;2.20;;
61821;SDS011;47749;51.104;7.008;2023-12-28T00:19:28;4.55;;;2.20;;
61821;SDS011;47749;51.104;7.008;2023-12-28T00:19:52;5.32;;;2.30;;
61821;SDS011;47749;51.104;7.008;2023-12-28T00:20:18;4.40;;;2.20;;
61821;SDS011;47749;51.104;7.008;2023-12-28T00:20:43;4.80;;;2.05;;
61821;SDS011;47749;51.104;7.008;2023-12-28T00:21:13;5.35;;;2.22;;
61821;SDS011;47749;51.104;7.008;2023-12-28T00:21:36;4.72;;;2.33;;
61821;SDS011;47749;51.104;7.008;2023-12-28T00:22:09;4.68;;;2.15;;
61821;SDS011;47749;51.104;7.008;2023-12-28T00:22:44;3.97;;;2.17;;
61821;SDS011;47749;51.104;7.008;2023-12-28T00:23:14;4.75;;;2.30;;
61821;SDS011;47749;51.104;7.008;2023-12-28T00:23:46;4.45;;;2.20;;
61821;SDS011;47749;51.104;7.008;2023-12-28T00:24:10;3.78;;;1.90;;
61821;SDS011;47749;51.104;7.008;2023-12-28T00:24:38;3.78;;;2.10;;
61821;SDS011;47749;51.104;7.008;2023-12-28T00:25:12;4.70;;;2.17;;
61821;SDS011;47749;51.104;7.008;2023-12-28T00:25:35;4.30;;;2.17;;
61821;SDS011;47749;51.104;7.008;2023-12-28T00:25:58;5.45;;;2.47;;
61821;SDS011;47749;51.104;7.008;2023-12-28T00:27:00;4.07;;;2.20;;
61821;SDS011;47749;51.104;7.008;2023-12-28T00:28:11;4.25;;;2.28;;
61821;SDS011;47749;51.104;7.008;2023-12-28T00:28:37;4.57;;;2.20;;
61821;SDS011;47749;51.104;7.008;2023-12-28T00:29:08;4.63;;;2.20;;
61821;SDS011;47749;51.104;7.008;2023-12-28T00:29:36;4.70;;;2.40;;
61821;SDS011;47749;51.104;7.008;2023-12-28T00:30:10;4.85;;;2.40;;
61821;SDS011;47749;51.104;7.008;2023-12-28T00:30:33;4.78;;;2.40;;
61821;SDS011;47749;51.104;7.008;2023-12-28T00:31:04;4.72;;;2.40;;
61821;SDS011;47749;51.104;7.008;2023-12-28T00:31:52;5.05;;;2.45;;
61821;SDS011;47749;51.104;7.008;2023-12-28T00:32:15;4.35;;;2.22;;
61821;SDS011;47749;51.104;7.008;2023-12-28T00:32:46;3.95;;;2.20;;
61821;SDS011;47749;51.104;7.008;2023-12-28T00:33:15;5.32;;;2.40;;
61821;SDS011;47749;51.104;7.008;2023-12-28T00:33:48;4.80;;;2.20;;
61821;SDS011;47749;51.104;7.008;2023-12-28T00:34:22;4.93;;;2.42;;
61821;SDS011;47749;51.104;7.008;2023-12-28T00:35:01;4.75;;;2.50;;
61821;SDS011;47749;51.104;7.008;2023-12-28T00:35:29;4.63;;;2.10;;
61821;SDS011;47749;51.104;7.008;2023-12-28T00:36:09;4.20;;;2.30;;
61821;SDS011;47749;51.104;7.008;2023-12-28T00:36:52;4.60;;;2.20;;
61821;SDS011;47749;51.104;7.008;2023-12-28T00:37:16;5.75;;;2.10;;
61821;SDS011;47749;51.104;7.008;2023-12-28T00:37:41;6.65;;;2.40;;
61821;SDS011;47749;51.104;7.008;2023-12-28T00:38:08;5.18;;;2.28;;
61821;SDS011;47749;51.104;7.008;2023-12-28T00:38:34;4.32;;;2.10;;
61821;SDS011;47749;51.104;7.008;2023-12-28T00:39:02;4.60;;;2.10;;
61821;SDS011;47749;51.104;7.008;2023-12-28T00:40:18;4.32;;;2.20;;
61821;SDS011;47749;51.104;7.008;2023-12-28T00:40:54;3.67;;;2.28;;
61821;SDS011;47749;51.104;7.008;2023-12-28T00:41:23;4.07;;;2.25;;
61821;SDS011;47749;51.104;7.008;2023-12-28T00:41:48;5.43;;;2.28;;
61821;SDS011;47749;51.104;7.008;2023-12-28T00:42:17;4.38;;;2.20;;
61821;SDS011;47749;51.104;7.008;2023-12-28T00:42:42;3.75;;;2.10;;
61821;SDS011;47749;51.104;7.008;2023-12-28T00:43:11;3.90;;;2.10;;
61821;SDS011;47749;51.104;7.008;2023-12-28T00:43:59;4.97;;;2.13;;
61821;SDS011;47749;51.104;7.008;2023-12-28T00:44:34;4.50;;;2.20;;
61821;SDS011;47749;51.104;7.008;2023-12-28T00:45:01;4.40;;;2.28;;
61821;SDS011;47749;51.104;7.008;2023-12-28T00:45:24;4.90;;;2.30;;
61821;SDS011;47749;51.104;7.008;2023-12-28T00:46:15;4.82;;;2.30;;
61821;SDS011;47749;51.104;7.008;2023-12-28T00:46:45;5.00;;;2.40;;
61821;SDS011;47749;51.104;7.008;2023-12-28T00:47:33;4.38;;;2.30;;
61821;SDS011;47749;51.104;7.008;2023-12-28T00:48:01;4.97;;;2.40;;
61821;SDS011;47749;51.104;7.008;2023-12-28T00:48:30;5.50;;;2.50;;
61821;SDS011;47749;51.104;7.008;2023-12-28T00:49:38;5.05;;;2.60;;
61821;SDS011;47749;51.104;7.008;2023-12-28T00:50:04;5.70;;;2.38;;
61821;SDS011;47749;51.104;7.008;2023-12-28T00:50:32;4.80;;;2.20;;
61821;SDS011;47749;51.104;7.008;2023-12-28T00:50:53;3.80;;;2.20;;
61821;SDS011;47749;51.104;7.008;2023-12-28T00:51:19;4.80;;;2.50;;
61821;SDS011;47749;51.104;7.008;2023-12-28T00:51:47;4.82;;;2.60;;
61821;SDS011;47749;51.104;7.008;2023-12-28T00:52:26;4.80;;;2.28;;
61821;SDS011;47749;51.104;7.008;2023-12-28T00:53:25;5.25;;;2.30;;
61821;SDS011;47749;51.104;7.008;2023-12-28T00:53:49;4.43;;;2.28;;
61821;SDS011;47749;51.104;7.008;2023-12-28T00:54:13;3.85;;;2.08;;
61821;SDS011;47749;51.104;7.008;2023-12-28T00:54:52;4.10;;;2.05;;
61821;SDS011;47749;51.104;7.008;2023-12-28T00:55:47;4.40;;;2.20;;
61821;SDS011;47749;51.104;7.008;2023-12-28T00:56:16;4.47;;;2.20;;
61821;SDS011;47749;51.104;7.008;2023-12-28T00:56:39;5.32;;;2.40;;
61821;SDS011;47749;51.104;7.008;2023-12-28T00:57:09;5.32;;;2.30;;
61821;SDS011;47749;51.104;7.008;2023-12-28T00:57:39;5.10;;;2.40;;
61821;SDS011;47749;51.104;7.008;2023-12-28T00:58:05;4.45;;;2.38;;
61821;SDS011;47749;51.104;7.008;2023-12-28T00:58:29;4.13;;;2.30;;
61821;SDS011;47749;51.104;7.008;2023-12-28T00:59:01;4.28;;;2.22;;
61821;SDS011;47749;51.104;7.008;2023-12-28T00:59:23;3.97;;;2.20;;
61821;SDS011;47749;51.104;7.008;2023-12-28T00:59:44;4.60;;;2.20;;
61821;SDS011;47749;51.104;7.008;2023-12-28T01:00:08;4.65;;;2.30;;
61821;SDS011;47749;51.104;7.008;2023-12-28T01:00:31;5.22;;;2.20;;
61821;SDS011;47749;51.104;7.008;2023-12-28T01:01:02;5.47;;;2.40;;
61821;SDS011;47749;51.104;7.008;2023-12-28T01:01:46;4.53;;;2.28;;
61821;SDS011;47749;51.104;7.008;2023-12-28T01:02:20;4.38;;;2.40;;
61821;SDS011;47749;51.104;7.008;2023-12-28T01:02:57;3.90;;;1.95;;
61821;SDS011;47749;51.104;7.008;2023-12-28T01:03:33;3.80;;;1.90;;
61821;SDS011;47749;51.104;7.008;2023-12-28T01:03:59;4.13;;;2.28;;
61821;SDS011;47749;51.104;7.008;2023-12-28T01:04:25;4.53;;;2.30;;
61821;SDS011;47749;51.104;7.008;2023-12-28T01:04:48;4.28;;;2.20;;
61821;SDS011;47749;51.104;7.008;2023-12-28T01:05:15;4.32;;;2.10;;
61821;SDS011;47749;51.104;7.008;2023-12-28T01:05:35;4.40;;;2.10;;
61821;SDS011;47749;51.104;7.008;2023-12-28T01:05:58;4.13;;;1.95;;
61821;SDS011;47749;51.104;7.008;2023-12-28T01:06:45;4.47;;;2.10;;
61821;SDS011;47749;51.104;7.008;2023-12-28T01:07:16;4.90;;;2.00;;
61821;SDS011;47749;51.104;7.008;2023-12-28T01:07:40;4.72;;;2.10;;
61821;SDS011;47749;51.104;7.008;2023-12-28T01:08:09;4.03;;;2.10;;
61821;SDS011;47749;51.104;7.008;2023-12-28T01:08:48;4.75;;;2.05;;
61821;SDS011;47749;51.104;7.008;2023-12-28T01:09:29;4.00;;;2.22;;
61821;SDS011;47749;51.104;7.008;2023-12-28T01:09:57;3.75;;;2.10;;
61821;SDS011;47749;51.104;7.008;2023-12-28T01:10:21;5.38;;;2.00;;
61821;SDS011;47749;51.104;7.008;2023-12-28T01:10:54;4.50;;;2.03;;
61821;SDS011;47749;51.104;7.008;2023-12-28T01:11:14;3.88;;;1.80;;
61821;SDS011;47749;51.104;7.008;2023-12-28T01:11:45;4.93;;;2.20;;
61821;SDS011;47749;51.104;7.008;2023-12-28T01:12:14;5.03;;;2.22;;
61821;SDS011;47749;51.104;7.008;2023-12-28T01:12:40;4.25;;;1.90;;
61821;SDS011;47749;51.104;7.008;2023-12-28T01:13:03;4.25;;;1.98;;
61821;SDS011;47749;51.104;7.008;2023-12-28T01:13:37;3.50;;;1.90;;
61821;SDS011;47749;51.104;7.008;2023-12-28T01:14:11;4.18;;;1.75;;
61821;SDS011;47749;51.104;7.008;2023-12-28T01:14:34;3.53;;;1.95;;
61821;SDS011;47749;51.104;7.008;2023-12-28T01:14:56;4.38;;;2.22;;
61821;SDS011;47749;51.104;7.008;2023-12-28T01:15:38;4.10;;;2.05;;
61821;SDS011;47749;51.104;7.008;2023-12-28T01:16:20;4.47;;;2.13;;
61821;SDS011;47749;51.104;7.008;2023-12-28T01:16:55;4.75;;;2.10;;
61821;SDS011;47749;51.104;7.008;2023-12-28T01:17:21;5.03;;;2.00;;
61821;SDS011;47749;51.104;7.008;2023-12-28T01:17:43;4.57;;;2.08;;
61821;SDS011;47749;51.104;7.008;2023-12-28T01:18:12;4.07;;;1.90;;
61821;SDS011;47749;51.104;7.008;2023-12-28T01:18:35;3.92;;;1.90;;
61821;SDS011;47749;51.104;7.008;2023-12-28T01:19:03;3.85;;;1.90;;
61821;SDS011;47749;51.104;7.008;2023-12-28T01:19:26;3.70;;;1.92;;
61821;SDS011;47749;51.104;7.008;2023-12-28T01:19:49;3.45;;;1.98;;
61821;SDS011;47749;51.104;7.008;2023-12-28T01:20:12;3.38;;;1.90;;
61821;SDS011;47749;51.104;7.008;2023-12-28T01:20:39;3.95;;;1.80;;
61821;SDS011;47749;51.104;7.008;2023-12-28T01:21:00;4.30;;;1.85;;
61821;SDS011;47749;51.104;7.008;2023-12-28T01:21:23;3.85;;;1.83;;
61821;SDS011;47749;51.104;7.008;2023-12-28T01:21:47;3.92;;;1.88;;
61821;SDS011;47749;51.104;7.008;2023-12-28T01:22:08;3.90;;;1.80;;
61821;SDS011;47749;51.104;7.008;2023-12-28T01:22:34;3.47;;;1.70;;
61821;SDS011;47749;51.104;7.008;2023-12-28T01:22:57;3.90;;;1.80;;
61821;SDS011;47749;51.104;7.008;2023-12-28T01:23:20;4.03;;;1.83;;
61821;SDS011;47749;51.104;7.008;2023-12-28T01:23:43;5.43;;;2.05;;
61821;SDS011;47749;51.104;7.008;2023-12-28T01:24:14;3.65;;;1.90;;
61821;SDS011;47749;51.104;7.008;2023-12-28T01:24:37;4.30;;;2.08;;
61821;SDS011;47749;51.104;7.008;2023-12-28T01:25:03;4.10;;;1.90;;
61821;SDS011;47749;51.104;7.008;2023-12-28T01:25:26;4.22;;;2.00;;
61821;SDS011;47749;51.104;7.008;2023-12-28T01:26:14;3.20;;;1.80;;
61821;SDS011;47749;51.104;7.008;2023-12-28T01:26:39;3.72;;;1.70;;
61821;SDS011;47749;51.104;7.008;2023-12-28T01:27:02;3.75;;;1.80;;
61821;SDS011;47749;51.104;7.008;2023-12-28T01:27:33;3.83;;;1.83;;
61821;SDS011;47749;51.104;7.008;2023-12-28T01:28:06;3.60;;;1.63;;
61821;SDS011;47749;51.104;7.008;2023-12-28T01:28:29;3.30;;;1.60;;
61821;SDS011;47749;51.104;7.008;2023-12-28T01:29:03;3.63;;;1.75;;
61821;SDS011;47749;51.104;7.008;2023-12-28T01:29:32;3.58;;;2.00;;
61821;SDS011;47749;51.104;7.008;2023-12-28T01:29:55;3.92;;;1.90;;
61821;SDS011;47749;51.104;7.008;2023-12-28T01:30:18;3.60;;;1.80;;
61821;SDS011;47749;51.104;7.008;2023-12-28T01:30:52;3.53;;;1.70;;
61821;SDS011;47749;51.104;7.008;2023-12-28T01:31:17;3.67;;;1.70;;
61821;SDS011;47749;51.104;7.008;2023-12-28T01:31:38;4.05;;;2.00;;
61821;SDS011;47749;51.104;7.008;2023-12-28T01:32:07;4.43;;;1.75;;
61821;SDS011;47749;51.104;7.008;2023-12-28T01:32:30;3.78;;;2.10;;
61821;SDS011;47749;51.104;7.008;2023-12-28T01:33:04;4.55;;;1.98;;
61821;SDS011;47749;51.104;7.008;2023-12-28T01:33:47;4.32;;;1.85;;
61821;SDS011;47749;51.104;7.008;2023-12-28T01:34:11;3.47;;;1.80;;
61821;SDS011;47749;51.104;7.008;2023-12-28T01:34:40;4.18;;;1.95;;
61821;SDS011;47749;51.104;7.008;2023-12-28T01:35:08;3.78;;;1.88;;
61821;SDS011;47749;51.104;7.008;2023-12-28T01:35:42;3.35;;;1.67;;
61821;SDS011;47749;51.104;7.008;2023-12-28T01:36:19;3.20;;;1.80;;
61821;SDS011;47749;51.104;7.008;2023-12-28T01:36:58;3.72;;;1.90;;
61821;SDS011;47749;51.104;7.008;2023-12-28T01:37:33;3.10;;;1.80;;
61821;SDS011;47749;51.104;7.008;2023-12-28T01:38:42;4.53;;;2.00;;
61821;SDS011;47749;51.104;7.008;2023-12-28T01:39:18;3.28;;;1.80;;
61821;SDS011;47749;51.104;7.008;2023-12-28T01:39:49;4.88;;;2.20;;
61821;SDS011;47749;51.104;7.008;2023-12-28T01:40:17;4.22;;;2.00;;
61821;SDS011;47749;51.104;7.008;2023-12-28T01:40:47;4.38;;;2.17;;
61821;SDS011;47749;51.104;7.008;2023-12-28T01:41:28;4.00;;;1.95;;
61821;SDS011;47749;51.104;7.008;2023-12-28T01:41:53;4.40;;;2.00;;
61821;SDS011;47749;51.104;7.008;2023-12-28T01:42:16;3.63;;;1.70;;
61821;SDS011;47749;51.104;7.008;2023-12-28T01:42:39;3.50;;;1.80;;
61821;SDS011;47749;51.104;7.008;2023-12-28T01:43:02;3.77;;;1.80;;
61821;SDS011;47749;51.104;7.008;2023-12-28T01:43:33;4.30;;;2.00;;
61821;SDS011;47749;51.104;7.008;2023-12-28T01:44:19;4.00;;;1.90;;
61821;SDS011;47749;51.104;7.008;2023-12-28T01:44:50;3.65;;;1.90;;
61821;SDS011;47749;51.104;7.008;2023-12-28T01:45:22;4.97;;;1.83;;
61821;SDS011;47749;51.104;7.008;2023-12-28T01:46:03;3.73;;;1.97;;
61821;SDS011;47749;51.104;7.008;2023-12-28T01:46:23;3.40;;;1.75;;
61821;SDS011;47749;51.104;7.008;2023-12-28T01:46:59;3.65;;;1.73;;
61821;SDS011;47749;51.104;7.008;2023-12-28T01:47:28;3.42;;;2.00;;
61821;SDS011;47749;51.104;7.008;2023-12-28T01:47:58;4.15;;;2.00;;
61821;SDS011;47749;51.104;7.008;2023-12-28T01:48:27;3.50;;;1.80;;
61821;SDS011;47749;51.104;7.008;2023-12-28T01:49:00;4.50;;;2.13;;
61821;SDS011;47749;51.104;7.008;2023-12-28T01:49:24;4.07;;;1.80;;
61821;SDS011;47749;51.104;7.008;2023-12-28T01:49:49;3.83;;;1.75;;
61821;SDS011;47749;51.104;7.008;2023-12-28T01:50:16;5.15;;;1.90;;
61821;SDS011;47749;51.104;7.008;2023-12-28T01:50:51;3.47;;;2.00;;
61821;SDS011;47749;51.104;7.008;2023-12-28T01:51:23;3.65;;;2.08;;
61821;SDS011;47749;51.104;7.008;2023-12-28T01:51:45;3.97;;;1.98;;
61821;SDS011;47749;51.104;7.008;2023-12-28T01:52:08;4.57;;;2.00;;
61821;SDS011;47749;51.104;7.008;2023-12-28T01:52:38;5.00;;;2.00;;
61821;SDS011;47749;51.104;7.008;2023-12-28T01:53:17;4.85;;;2.00;;
61821;SDS011;47749;51.104;7.008;2023-12-28T01:53:38;4.88;;;2.10;;
61821;SDS011;47749;51.104;7.008;2023-12-28T01:54:10;4.88;;;2.00;;
61821;SDS011;47749;51.104;7.008;2023-12-28T01:54:51;3.55;;;1.90;;
61821;SDS011;47749;51.104;7.008;2023-12-28T01:55:35;3.97;;;1.88;;
61821;SDS011;47749;51.104;7.008;2023-12-28T01:55:56;3.97;;;1.90;;
61821;SDS011;47749;51.104;7.008;2023-12-28T01:56:44;4.63;;;2.00;;
61821;SDS011;47749;51.104;7.008;2023-12-28T01:57:07;3.80;;;1.85;;
61821;SDS011;47749;51.104;7.008;2023-12-28T01:57:38;4.95;;;2.20;;
61821;SDS011;47749;51.104;7.008;2023-12-28T01:58:01;4.43;;;2.25;;
61821;SDS011;47749;51.104;7.008;2023-12-28T01:58:23;4.30;;;2.10;;
61821;SDS011;47749;51.104;7.008;2023-12-28T01:58:54;4.80;;;2.25;;
61821;SDS011;47749;51.104;7.008;2023-12-28T01:59:20;4.40;;;2.03;;
61821;SDS011;47749;51.104;7.008;2023-12-28T01:59:51;4.57;;;2.10;;
61821;SDS011;47749;51.104;7.008;2023-12-28T02:00:15;5.03;;;2.50;;
61821;SDS011;47749;51.104;7.008;2023-12-28T02:00:39;4.82;;;2.53;;
61821;SDS011;47749;51.104;7.008;2023-12-28T02:01:24;3.55;;;1.75;;
61821;SDS011;47749;51.104;7.008;2023-12-28T02:01:53;3.70;;;2.10;;
61821;SDS011;47749;51.104;7.008;2023-12-28T02:02:36;3.50;;;1.80;;
61821;SDS011;47749;51.104;7.008;2023-12-28T02:03:05;5.22;;;2.17;;
61821;SDS011;47749;51.104;7.008;2023-12-28T02:03:29;4.82;;;1.85;;
61821;SDS011;47749;51.104;7.008;2023-12-28T02:03:49;4.78;;;1.90;;
61821;SDS011;47749;51.104;7.008;2023-12-28T02:04:15;4.63;;;1.90;;
61821;SDS011;47749;51.104;7.008;2023-12-28T02:04:56;4.13;;;2.05;;
61821;SDS011;47749;51.104;7.008;2023-12-28T02:05:16;4.28;;;2.00;;
61821;SDS011;47749;51.104;7.008;2023-12-28T02:05:46;4.72;;;1.85;;
61821;SDS011;47749;51.104;7.008;2023-12-28T02:06:14;3.15;;;1.77;;
61821;SDS011;47749;51.104;7.008;2023-12-28T02:06:39;4.28;;;2.15;;
61821;SDS011;47749;51.104;7.008;2023-12-28T02:07:00;3.70;;;2.10;;
61821;SDS011;47749;51.104;7.008;2023-12-28T02:07:28;3.88;;;2.00;;
61821;SDS011;47749;51.104;7.008;2023-12-28T02:08:20;4.03;;;1.92;;
61821;SDS011;47749;51.104;7.008;2023-12-28T02:08:42;3.03;;;1.80;;
61821;SDS011;47749;51.104;7.008;2023-12-28T02:09:18;4.80;;;2.03;;
61821;SDS011;47749;51.104;7.008;2023-12-28T02:09:52;4.47;;;2.00;;
61821;SDS011;47749;51.104;7.008;2023-12-28T02:10:17;3.97;;;1.80;;
61821;SDS011;47749;51.104;7.008;2023-12-28T02:10:41;4.15;;;1.80;;
61821;SDS011;47749;51.104;7.008;2023-12-28T02:11:03;4.22;;;2.00;;
61821;SDS011;47749;51.104;7.008;2023-12-28T02:11:37;4.22;;;1.88;;
61821;SDS011;47749;51.104;7.008;2023-12-28T02:12:02;4.28;;;1.85;;
61821;SDS011;47749;51.104;7.008;2023-12-28T02:12:26;5.00;;;2.08;;
61821;SDS011;47749;51.104;7.008;2023-12-28T02:13:01;4.07;;;1.80;;
61821;SDS011;47749;51.104;7.008;2023-12-28T02:13:32;3.55;;;1.80;;
61821;SDS011;47749;51.104;7.008;2023-12-28T02:13:57;4.47;;;1.90;;
61821;SDS011;47749;51.104;7.008;2023-12-28T02:14:25;4.63;;;1.90;;
61821;SDS011;47749;51.104;7.008;2023-12-28T02:14:56;3.45;;;1.85;;
61821;SDS011;47749;51.104;7.008;2023-12-28T02:15:21;3.78;;;1.90;;
61821;SDS011;47749;51.104;7.008;2023-12-28T02:15:54;3.50;;;1.98;;
61821;SDS011;47749;51.104;7.008;2023-12-28T02:16:29;4.13;;;1.90;;
61821;SDS011;47749;51.104;7.008;2023-12-28T02:17:36;3.90;;;1.95;;
61821;SDS011;47749;51.104;7.008;2023-12-28T02:18:12;3.42;;;1.70;;
61821;SDS011;47749;51.104;7.008;2023-12-28T02:20:06;3.90;;;1.90;;
61821;SDS011;47749;51.104;7.008;2023-12-28T02:20:50;3.78;;;1.80;;
61821;SDS011;47749;51.104;7.008;2023-12-28T02:21:16;3.65;;;1.73;;
61821;SDS011;47749;51.104;7.008;2023-12-28T02:21:37;3.33;;;1.63;;
61821;SDS011;47749;51.104;7.008;2023-12-28T02:22:05;3.40;;;1.80;;
61821;SDS011;47749;51.104;7.008;2023-12-28T02:22:36;4.05;;;1.80;;
61821;SDS011;47749;51.104;7.008;2023-12-28T02:23:06;3.47;;;1.60;;
61821;SDS011;47749;51.104;7.008;2023-12-28T02:23:35;4.05;;;1.60;;
61821;SDS011;47749;51.104;7.008;2023-12-28T02:24:28;3.60;;;1.80;;
61821;SDS011;47749;51.104;7.008;2023-12-28T02:25:36;3.97;;;1.60;;
61821;SDS011;47749;51.104;7.008;2023-12-28T02:26:00;4.38;;;1.90;;
61821;SDS011;47749;51.104;7.008;2023-12-28T02:26:25;3.30;;;1.55;;
61821;SDS011;47749;51.104;7.008;2023-12-28T02:27:22;3.40;;;1.60;;
61821;SDS011;47749;51.104;7.008;2023-12-28T02:27:46;3.22;;;1.60;;
61821;SDS011;47749;51.104;7.008;2023-12-28T02:28:13;3.90;;;1.75;;
61821;SDS011;47749;51.104;7.008;2023-12-28T02:28:33;6.18;;;2.80;;
61821;SDS011;47749;51.104;7.008;2023-12-28T02:31:35;3.65;;;1.70;;
61821;SDS011;47749;51.104;7.008;2023-12-28T02:32:05;4.32;;;1.70;;
61821;SDS011;47749;51.104;7.008;2023-12-28T02:33:34;3.35;;;1.60;;
61821;SDS011;47749;51.104;7.008;2023-12-28T02:33:58;3.78;;;1.70;;
61821;SDS011;47749;51.104;7.008;2023-12-28T02:34:40;3.30;;;1.67;;
61821;SDS011;47749;51.104;7.008;2023-12-28T02:36:06;3.53;;;1.70;;
61821;SDS011;47749;51.104;7.008;2023-12-28T02:36:29;3.22;;;1.70;;
61821;SDS011;47749;51.104;7.008;2023-12-28T02:37:02;2.97;;;1.60;;
61821;SDS011;47749;51.104;7.008;2023-12-28T02:37:28;4.43;;;1.70;;
61821;SDS011;47749;51.104;7.008;2023-12-28T02:37:53;3.72;;;1.80;;
61821;SDS011;47749;51.104;7.008;2023-12-28T02:38:20;3.55;;;1.77;;
61821;SDS011;47749;51.104;7.008;2023-12-28T02:38:53;4.50;;;1.90;;
61821;SDS011;47749;51.104;7.008;2023-12-28T02:39:25;4.13;;;1.98;;
61821;SDS011;47749;51.104;7.008;2023-12-28T02:39:54;3.85;;;1.80;;
61821;SDS011;47749;51.104;7.008;2023-12-28T02:40:24;4.03;;;1.70;;
61821;SDS011;47749;51.104;7.008;2023-12-28T02:40:48;2.97;;;1.60;;
61821;SDS011;47749;51.104;7.008;2023-12-28T02:41:09;2.95;;;1.60;;
61821;SDS011;47749;51.104;7.008;2023-12-28T02:41:34;3.80;;;1.70;;
61821;SDS011;47749;51.104;7.008;2023-12-28T02:41:58;3.13;;;1.60;;
61821;SDS011;47749;51.104;7.008;2023-12-28T02:42:28;2.95;;;1.38;;
61821;SDS011;47749;51.104;7.008;2023-12-28T02:43:25;2.78;;;1.60;;
61821;SDS011;47749;51.104;7.008;2023-12-28T02:43:48;3.97;;;1.80;;
61821;SDS011;47749;51.104;7.008;2023-12-28T02:44:27;3.05;;;1.60;;
61821;SDS011;47749;51.104;7.008;2023-12-28T02:44:53;3.72;;;1.83;;
61821;SDS011;47749;51.104;7.008;2023-12-28T02:45:22;3.50;;;1.83;;
61821;SDS011;47749;51.104;7.008;2023-12-28T02:45:51;3.75;;;1.60;;
61821;SDS011;47749;51.104;7.008;2023-12-28T02:46:29;2.65;;;1.60;;
61821;SDS011;47749;51.104;7.008;2023-12-28T02:46:59;3.20;;;1.60;;
61821;SDS011;47749;51.104;7.008;2023-12-28T02:47:54;3.90;;;1.65;;
61821;SDS011;47749;51.104;7.008;2023-12-28T02:48:20;3.47;;;1.55;;
61821;SDS011;47749;51.104;7.008;2023-12-28T02:48:48;3.65;;;1.63;;
61821;SDS011;47749;51.104;7.008;2023-12-28T02:49:09;3.42;;;1.58;;
61821;SDS011;47749;51.104;7.008;2023-12-28T02:49:41;3.65;;;1.70;;
61821;SDS011;47749;51.104;7.008;2023-12-28T02:50:04;2.78;;;1.50;;
61821;SDS011;47749;51.104;7.008;2023-12-28T02:50:27;2.95;;;1.40;;
61821;SDS011;47749;51.104;7.008;2023-12-28T02:50:58;2.80;;;1.50;;
61821;SDS011;47749;51.104;7.008;2023-12-28T02:51:42;3.03;;;1.52;;
61821;SDS011;47749;51.104;7.008;2023-12-28T02:52:56;2.47;;;1.30;;
61821;SDS011;47749;51.104;7.008;2023-12-28T02:53:23;3.40;;;1.40;;
61821;SDS011;47749;51.104;7.008;2023-12-28T02:53:57;3.63;;;1.40;;
61821;SDS011;47749;51.104;7.008;2023-12-28T02:54:18;3.17;;;1.47;;
61821;SDS011;47749;51.104;7.008;2023-12-28T02:54:52;2.92;;;1.30;;
61821;SDS011;47749;51.104;7.008;2023-12-28T02:55:38;3.45;;;1.50;;
61821;SDS011;47749;51.104;7.008;2023-12-28T02:56:04;2.53;;;1.48;;
61821;SDS011;47749;51.104;7.008;2023-12-28T02:56:33;3.00;;;1.38;;
61821;SDS011;47749;51.104;7.008;2023-12-28T02:57:04;3.05;;;1.30;;
61821;SDS011;47749;51.104;7.008;2023-12-28T02:57:46;2.80;;;1.25;;
61821;SDS011;47749;51.104;7.008;2023-12-28T02:58:36;2.65;;;1.30;;
61821;SDS011;47749;51.104;7.008;2023-12-28T02:59:05;2.40;;;1.23;;
61821;SDS011;47749;51.104;7.008;2023-12-28T02:59:29;3.10;;;1.30;;
61821;SDS011;47749;51.104;7.008;2023-12-28T02:59:54;3.85;;;1.40;;
61821;SDS011;47749;51.104;7.008;2023-12-28T03:00:30;2.28;;;1.10;;
61821;SDS011;47749;51.104;7.008;2023-12-28T03:01:12;3.63;;;1.48;;
61821;SDS011;47749;51.104;7.008;2023-12-28T03:01:41;2.40;;;1.30;;
61821;SDS011;47749;51.104;7.008;2023-12-28T03:02:09;2.17;;;1.20;;
61821;SDS011;47749;51.104;7.008;2023-12-28T03:02:29;2.70;;;1.40;;
61821;SDS011;47749;51.104;7.008;2023-12-28T03:02:50;2.65;;;1.40;;
61821;SDS011;47749;51.104;7.008;2023-12-28T03:03:10;2.67;;;1.40;;
61821;SDS011;47749;51.104;7.008;2023-12-28T03:03:41;2.53;;;1.27;;
61821;SDS011;47749;51.104;7.008;2023-12-28T03:04:10;2.17;;;1.30;;
61821;SDS011;47749;51.104;7.008;2023-12-28T03:04:48;2.80;;;1.30;;
61821;SDS011;47749;51.104;7.008;2023-12-28T03:05:11;2.63;;;1.40;;
61821;SDS011;47749;51.104;7.008;2023-12-28T03:05:40;2.65;;;1.30;;
61821;SDS011;47749;51.104;7.008;2023-12-28T03:06:01;2.63;;;1.37;;
61821;SDS011;47749;51.104;7.008;2023-12-28T03:06:32;2.95;;;1.50;;
61821;SDS011;47749;51.104;7.008;2023-12-28T03:07:04;2.42;;;1.30;;
61821;SDS011;47749;51.104;7.008;2023-12-28T03:07:25;3.00;;;1.30;;
61821;SDS011;47749;51.104;7.008;2023-12-28T03:07:45;3.25;;;1.30;;
61821;SDS011;47749;51.104;7.008;2023-12-28T03:08:09;2.78;;;1.10;;
61821;SDS011;47749;51.104;7.008;2023-12-28T03:09:29;2.78;;;1.23;;
61821;SDS011;47749;51.104;7.008;2023-12-28T03:09:49;2.43;;;1.13;;
61821;SDS011;47749;51.104;7.008;2023-12-28T03:11:05;2.65;;;1.20;;
61821;SDS011;47749;51.104;7.008;2023-12-28T03:11:58;2.08;;;1.10;;
61821;SDS011;47749;51.104;7.008;2023-12-28T03:12:22;2.20;;;1.00;;
61821;SDS011;47749;51.104;7.008;2023-12-28T03:12:55;2.40;;;1.30;;
61821;SDS011;47749;51.104;7.008;2023-12-28T03:13:29;2.65;;;1.20;;
61821;SDS011;47749;51.104;7.008;2023-12-28T03:13:55;2.33;;;1.27;;
61821;SDS011;47749;51.104;7.008;2023-12-28T03:14:27;2.00;;;1.20;;
61821;SDS011;47749;51.104;7.008;2023-12-28T03:15:07;2.20;;;1.30;;
61821;SDS011;47749;51.104;7.008;2023-12-28T03:15:35;2.13;;;1.08;;
61821;SDS011;47749;51.104;7.008;2023-12-28T03:16:18;2.08;;;1.20;;
61821;SDS011;47749;51.104;7.008;2023-12-28T03:16:39;2.20;;;1.30;;
61821;SDS011;47749;51.104;7.008;2023-12-28T03:17:08;2.35;;;1.10;;
61821;SDS011;47749;51.104;7.008;2023-12-28T03:17:34;2.17;;;1.30;;
61821;SDS011;47749;51.104;7.008;2023-12-28T03:18:02;2.38;;;1.10;;
61821;SDS011;47749;51.104;7.008;2023-12-28T03:18:25;2.25;;;1.00;;
61821;SDS011;47749;51.104;7.008;2023-12-28T03:18:58;1.73;;;1.17;;